createdAt,value
2023-04-16T00:01:16.189Z,10.00
2023-04-16T00:03:43.671Z,10.00
2023-04-16T00:06:12.599Z,10.00
2023-04-16T00:08:41.149Z,10.00
2023-04-16T00:11:08.268Z,10.00
2023-04-16T00:13:35.657Z,9.90
2023-04-16T00:16:03.135Z,10.00
2023-04-16T00:18:30.933Z,10.00
2023-04-16T00:20:58.110Z,10.00
2023-04-16T00:23:25.585Z,10.00
2023-04-16T00:25:53.825Z,10.00
2023-04-16T00:28:21.248Z,9.90
2023-04-16T00:30:48.472Z,9.90
2023-04-16T00:33:17.140Z,9.90
2023-04-16T00:35:46.906Z,9.90
2023-04-16T00:38:15.109Z,9.90
2023-04-16T00:40:42.311Z,9.80
2023-04-16T00:43:09.587Z,9.80
2023-04-16T00:45:37.266Z,9.80
2023-04-16T00:48:05.331Z,9.80
2023-04-16T00:50:33.202Z,9.70
2023-04-16T00:53:01.529Z,9.70
2023-04-16T00:55:29.028Z,9.70
2023-04-16T00:57:56.281Z,9.70
2023-04-16T01:00:23.647Z,9.70
2023-04-16T01:02:51.060Z,9.70
2023-04-16T01:05:19.489Z,9.80
2023-04-16T01:07:46.921Z,9.80
2023-04-16T01:10:14.194Z,9.80
2023-04-16T01:12:41.471Z,9.90
2023-04-16T01:15:09.142Z,9.90
2023-04-16T01:17:36.565Z,9.90
2023-04-16T01:20:04.139Z,9.80
2023-04-16T01:22:31.701Z,9.80
2023-04-16T01:24:59.204Z,9.70
2023-04-16T01:27:27.072Z,9.70
2023-04-16T01:29:56.374Z,9.70
2023-04-16T01:32:33.446Z,9.70
2023-04-16T01:35:00.804Z,9.70
2023-04-16T01:37:27.932Z,9.70
2023-04-16T01:39:55.166Z,9.60
2023-04-16T01:42:22.334Z,9.60
2023-04-16T01:44:50.944Z,9.60
2023-04-16T01:47:18.282Z,9.60
2023-04-16T01:49:48.323Z,9.60
2023-04-16T01:52:15.710Z,9.50
2023-04-16T01:54:43.064Z,9.50
2023-04-16T01:57:10.383Z,9.40
2023-04-16T01:59:37.686Z,9.40
2023-04-16T02:02:11.463Z,9.40
2023-04-16T02:04:41.396Z,9.30
2023-04-16T02:07:09.724Z,9.30
2023-04-16T02:09:39.115Z,9.30
2023-04-16T02:12:07.782Z,9.30
2023-04-16T02:14:35.170Z,9.30
2023-04-16T02:17:02.419Z,9.20
2023-04-16T02:19:31.309Z,9.20
2023-04-16T02:21:58.578Z,9.10
2023-04-16T02:24:25.818Z,9.10
2023-04-16T02:26:53.538Z,9.10
2023-04-16T02:29:22.639Z,9.10
2023-04-16T02:31:56.929Z,9.10
2023-04-16T02:34:25.658Z,9.10
2023-04-16T02:36:54.328Z,9.10
2023-04-16T02:39:21.716Z,9.00
2023-04-16T02:41:48.863Z,9.00
2023-04-16T02:44:16.077Z,9.00
2023-04-16T02:46:43.339Z,8.90
2023-04-16T02:49:10.916Z,8.90
2023-04-16T02:51:38.118Z,8.80
2023-04-16T02:54:05.705Z,8.70
2023-04-16T02:56:33.374Z,8.60
2023-04-16T02:59:00.796Z,8.70
2023-04-16T03:01:29.175Z,8.70
2023-04-16T03:03:56.733Z,8.70
2023-04-16T03:06:23.975Z,8.70
2023-04-16T03:08:51.318Z,8.70
2023-04-16T03:11:18.565Z,8.80
2023-04-16T03:13:46.027Z,8.80
2023-04-16T03:16:13.281Z,8.80
2023-04-16T03:18:40.726Z,8.80
2023-04-16T03:21:07.862Z,8.80
2023-04-16T03:23:36.531Z,8.80
2023-04-16T03:26:04.881Z,8.70
2023-04-16T03:28:32.199Z,8.80
2023-04-16T03:30:59.642Z,8.80
2023-04-16T03:33:27.131Z,8.70
2023-04-16T03:35:57.143Z,8.70
2023-04-16T03:38:26.817Z,8.70
2023-04-16T03:40:56.544Z,8.70
2023-04-16T03:43:23.990Z,8.70
2023-04-16T03:45:51.562Z,8.70
2023-04-16T03:48:21.901Z,8.70
2023-04-16T03:50:49.159Z,8.70
2023-04-16T03:53:19.268Z,8.70
2023-04-16T03:55:51.533Z,8.60
2023-04-16T03:58:20.480Z,8.60
2023-04-16T04:00:48.219Z,8.60
2023-04-16T04:03:17.982Z,8.60
2023-04-16T04:05:47.910Z,8.60
2023-04-16T04:08:19.987Z,8.60
2023-04-16T04:10:47.313Z,8.50
2023-04-16T04:13:15.619Z,8.60
2023-04-16T04:15:44.673Z,8.60
2023-04-16T04:18:11.809Z,8.60
2023-04-16T04:20:41.354Z,8.60
2023-04-16T04:23:08.981Z,8.60
2023-04-16T04:25:36.963Z,8.50
2023-04-16T04:28:04.342Z,8.50
2023-04-16T04:30:31.536Z,8.50
2023-04-16T04:32:58.642Z,8.40
2023-04-16T04:35:26.068Z,8.40
2023-04-16T04:37:53.610Z,8.30
2023-04-16T04:40:21.464Z,8.20
2023-04-16T04:42:48.669Z,8.20
2023-04-16T04:45:16.144Z,8.20
2023-04-16T04:47:43.437Z,8.20
2023-04-16T04:50:11.289Z,8.20
2023-04-16T04:52:39.086Z,8.20
2023-04-16T04:55:07.931Z,8.10
2023-04-16T04:57:35.847Z,8.00
2023-04-16T05:00:06.352Z,7.90
2023-04-16T05:02:41.954Z,7.80
2023-04-16T05:05:09.403Z,7.70
2023-04-16T05:07:36.922Z,7.60
2023-04-16T05:10:04.441Z,7.60
2023-04-16T05:12:31.563Z,7.60
2023-04-16T05:14:58.760Z,7.70
2023-04-16T05:17:26.005Z,7.70
2023-04-16T05:19:53.259Z,7.70
2023-04-16T05:22:20.522Z,7.80
2023-04-16T05:24:47.868Z,8.00
2023-04-16T05:27:15.045Z,7.90
2023-04-16T05:29:42.361Z,8.00
2023-04-16T05:32:10.463Z,8.00
2023-04-16T05:34:37.683Z,8.00
2023-04-16T05:37:04.897Z,8.00
2023-04-16T05:39:32.169Z,8.00
2023-04-16T05:41:59.339Z,8.00
2023-04-16T05:44:26.610Z,8.00
2023-04-16T05:46:54.053Z,8.10
2023-04-16T05:49:22.276Z,8.10
2023-04-16T05:51:50.838Z,8.10
2023-04-16T05:54:18.366Z,8.10
2023-04-16T05:56:45.639Z,8.10
2023-04-16T05:59:12.915Z,8.20
2023-04-16T06:01:40.138Z,8.20
2023-04-16T06:04:07.409Z,8.30
2023-04-16T06:06:34.597Z,8.30
2023-04-16T06:09:01.815Z,8.40
2023-04-16T06:11:30.717Z,8.50
2023-04-16T06:13:57.926Z,8.60
2023-04-16T06:16:25.494Z,8.70
2023-04-16T06:18:52.816Z,8.80
2023-04-16T06:21:20.056Z,8.90
2023-04-16T06:23:47.302Z,8.90
2023-04-16T06:26:14.462Z,8.90
2023-04-16T06:28:41.735Z,8.90
2023-04-16T06:31:09.109Z,9.00
2023-04-16T06:33:36.416Z,8.90
2023-04-16T06:36:03.655Z,8.90
2023-04-16T06:38:31.082Z,8.90
2023-04-16T06:40:59.424Z,8.90
2023-04-16T06:43:27.056Z,8.90
2023-04-16T06:45:55.528Z,9.00
2023-04-16T06:48:22.759Z,9.00
2023-04-16T06:50:49.885Z,9.00
2023-04-16T06:53:17.336Z,9.00
2023-04-16T06:55:44.436Z,9.10
2023-04-16T06:58:11.752Z,9.10
2023-04-16T07:00:39.035Z,9.10
2023-04-16T07:03:06.459Z,9.20
2023-04-16T07:05:33.748Z,9.30
2023-04-16T07:08:01.196Z,9.40
2023-04-16T07:10:28.446Z,9.50
2023-04-16T07:12:55.839Z,9.70
2023-04-16T07:15:23.081Z,9.90
2023-04-16T07:17:50.412Z,10.00
2023-04-16T07:20:17.776Z,10.10
2023-04-16T07:22:45.164Z,10.30
2023-04-16T07:25:12.394Z,10.50
2023-04-16T07:27:39.600Z,10.70
2023-04-16T07:30:08.152Z,11.00
2023-04-16T07:32:36.017Z,11.30
2023-04-16T07:35:03.911Z,11.60
2023-04-16T07:37:31.497Z,11.80
2023-04-16T07:39:59.975Z,12.10
2023-04-16T07:42:28.254Z,12.30
2023-04-16T07:44:55.873Z,12.50
2023-04-16T07:47:23.329Z,12.70
2023-04-16T07:49:50.754Z,13.00
2023-04-16T07:52:18.264Z,13.10
2023-04-16T07:54:45.461Z,13.10
2023-04-16T07:57:12.742Z,13.20
2023-04-16T07:59:39.935Z,13.40
2023-04-16T08:02:08.936Z,13.50
2023-04-16T08:04:36.570Z,13.70
2023-04-16T08:07:03.963Z,13.90
2023-04-16T08:09:31.395Z,14.10
2023-04-16T08:12:00.800Z,14.30
2023-04-16T08:14:28.147Z,14.40
2023-04-16T08:16:55.407Z,14.30
2023-04-16T08:19:22.546Z,14.50
2023-04-16T08:21:49.935Z,14.80
2023-04-16T08:24:17.112Z,15.00
2023-04-16T08:26:44.364Z,15.10
2023-04-16T08:29:11.853Z,15.30
2023-04-16T08:31:39.399Z,15.50
2023-04-16T08:34:06.849Z,15.80
2023-04-16T08:36:34.294Z,16.00
2023-04-16T08:39:01.385Z,16.10
2023-04-16T08:41:32.446Z,16.10
2023-04-16T08:44:05.827Z,16.20
2023-04-16T08:46:36.675Z,16.40
2023-04-16T08:49:07.072Z,16.50
2023-04-16T08:51:36.091Z,16.50
2023-04-16T08:54:06.228Z,16.70
2023-04-16T08:56:37.383Z,16.70
2023-04-16T08:59:05.745Z,16.80
2023-04-16T09:01:34.056Z,17.00
2023-04-16T09:04:01.848Z,17.10
2023-04-16T09:06:29.645Z,17.20
2023-04-16T09:08:59.455Z,17.30
2023-04-16T09:11:27.763Z,17.40
2023-04-16T09:13:55.165Z,17.40
2023-04-16T09:16:22.484Z,17.50
2023-04-16T09:18:49.786Z,17.50
2023-04-16T09:21:16.994Z,17.50
2023-04-16T09:23:45.395Z,17.40
2023-04-16T09:26:12.540Z,17.60
2023-04-16T09:28:42.114Z,17.60
2023-04-16T09:31:13.026Z,17.50
2023-04-16T09:33:40.587Z,17.80
2023-04-16T09:36:07.782Z,18.10
2023-04-16T09:38:38.276Z,18.20
2023-04-16T09:41:08.576Z,18.00
2023-04-16T09:43:36.519Z,18.00
2023-04-16T09:46:08.252Z,17.60
2023-04-16T09:48:36.096Z,17.80
2023-04-16T09:51:06.984Z,18.00
2023-04-16T09:53:34.427Z,18.10
2023-04-16T09:56:06.399Z,18.30
2023-04-16T09:58:38.206Z,18.50
2023-04-16T10:01:08.772Z,18.70
2023-04-16T10:03:38.026Z,18.90
2023-04-16T10:06:07.040Z,18.90
2023-04-16T10:08:34.197Z,19.10
2023-04-16T10:11:02.458Z,19.10
2023-04-16T10:13:31.397Z,19.30
2023-04-16T10:15:59.026Z,19.40
2023-04-16T10:18:26.407Z,19.40
2023-04-16T10:20:54.097Z,19.60
2023-04-16T10:23:22.965Z,19.80
2023-04-16T10:25:51.056Z,19.80
2023-04-16T10:28:18.962Z,19.70
2023-04-16T10:30:53.088Z,19.70
2023-04-16T10:33:22.002Z,19.80
2023-04-16T10:36:01.187Z,19.70
2023-04-16T10:38:35.413Z,19.70
2023-04-16T10:41:04.738Z,19.90
2023-04-16T10:43:38.647Z,19.70
2023-04-16T10:46:08.928Z,19.50
2023-04-16T10:48:48.576Z,19.70
2023-04-16T10:51:38.736Z,20.00
2023-04-16T10:54:20.051Z,20.00
2023-04-16T10:56:47.945Z,20.00
2023-04-16T10:59:20.081Z,20.00
2023-04-16T11:01:51.487Z,20.10
2023-04-16T11:04:40.093Z,20.10
2023-04-16T11:07:17.838Z,20.00
2023-04-16T11:10:02.542Z,20.20
2023-04-16T11:12:35.932Z,20.30
2023-04-16T11:15:04.946Z,20.30
2023-04-16T11:17:37.384Z,20.30
2023-04-16T11:20:19.501Z,20.40
2023-04-16T11:22:51.093Z,20.20
2023-04-16T11:25:22.361Z,20.00
2023-04-16T11:27:50.494Z,19.80
2023-04-16T11:30:18.451Z,19.80
2023-04-16T11:32:47.135Z,20.00
2023-04-16T11:35:16.849Z,20.20
2023-04-16T11:37:44.912Z,20.30
2023-04-16T11:40:13.107Z,20.10
2023-04-16T11:42:42.417Z,20.20
2023-04-16T11:45:12.227Z,20.20
2023-04-16T11:47:42.649Z,20.20
2023-04-16T11:50:12.902Z,20.30
2023-04-16T11:52:40.234Z,20.20
2023-04-16T11:55:07.711Z,20.20
2023-04-16T11:57:34.994Z,20.20
2023-04-16T12:00:03.963Z,20.30
2023-04-16T12:02:36.933Z,20.30
2023-04-16T12:05:07.570Z,20.30
2023-04-16T12:07:37.854Z,20.30
2023-04-16T12:10:07.875Z,20.40
2023-04-16T12:12:35.583Z,20.50
2023-04-16T12:15:04.088Z,20.60
2023-04-16T12:17:33.338Z,20.70
2023-04-16T12:20:02.797Z,20.60
2023-04-16T12:22:36.842Z,20.40
2023-04-16T12:25:07.164Z,20.30
2023-04-16T12:27:38.549Z,20.40
2023-04-16T12:30:07.789Z,20.30
2023-04-16T12:32:35.112Z,20.20
2023-04-16T12:35:02.483Z,20.00
2023-04-16T12:37:29.706Z,20.00
2023-04-16T12:39:56.964Z,20.10
2023-04-16T12:42:24.135Z,20.10
2023-04-16T12:44:51.660Z,20.20
2023-04-16T12:47:18.888Z,20.20
2023-04-16T12:49:46.239Z,20.10
2023-04-16T12:52:13.589Z,20.20
2023-04-16T12:54:41.230Z,20.20
2023-04-16T12:57:08.372Z,20.20
2023-04-16T12:59:35.772Z,20.10
2023-04-16T13:02:03.095Z,20.10
2023-04-16T13:04:31.102Z,20.10
2023-04-16T13:06:58.467Z,20.10
2023-04-16T13:09:26.134Z,20.00
2023-04-16T13:11:53.256Z,20.10
2023-04-16T13:14:21.448Z,20.10
2023-04-16T13:16:48.539Z,20.20
2023-04-16T13:19:16.296Z,20.10
2023-04-16T13:21:43.548Z,20.00
2023-04-16T13:24:10.821Z,20.00
2023-04-16T13:26:37.947Z,19.90
2023-04-16T13:29:05.226Z,19.90
2023-04-16T13:31:32.501Z,19.90
2023-04-16T13:33:59.746Z,19.90
2023-04-16T13:36:27.902Z,19.90
2023-04-16T13:38:55.130Z,19.90
2023-04-16T13:41:22.297Z,19.90
2023-04-16T13:43:49.727Z,19.90
2023-04-16T13:46:16.997Z,19.90
2023-04-16T13:48:44.795Z,19.80
2023-04-16T13:51:12.109Z,19.80
2023-04-16T13:53:39.296Z,19.70
2023-04-16T13:56:07.257Z,19.70
2023-04-16T13:58:34.571Z,19.50
2023-04-16T14:01:01.726Z,19.50
2023-04-16T14:03:29.068Z,19.50
2023-04-16T14:05:56.353Z,19.60
2023-04-16T14:08:25.032Z,19.60
2023-04-16T14:10:53.076Z,19.60
2023-04-16T14:13:21.602Z,19.50
2023-04-16T14:15:48.861Z,19.50
2023-04-16T14:18:16.283Z,19.50
2023-04-16T14:20:44.040Z,19.40
2023-04-16T14:23:12.498Z,19.40
2023-04-16T14:25:39.693Z,19.30
2023-04-16T14:28:07.033Z,19.30
2023-04-16T14:30:34.172Z,19.30
2023-04-16T14:33:01.580Z,19.40
2023-04-16T14:35:28.934Z,19.40
2023-04-16T14:37:56.771Z,19.30
2023-04-16T14:40:23.978Z,19.30
2023-04-16T14:42:51.428Z,19.20
2023-04-16T14:45:18.662Z,19.20
2023-04-16T14:47:48.039Z,19.20
2023-04-16T14:50:15.870Z,19.20
2023-04-16T14:52:43.386Z,19.10
2023-04-16T14:55:10.629Z,19.10
2023-04-16T14:57:39.132Z,19.10
2023-04-16T15:00:09.094Z,19.10
2023-04-16T15:02:36.830Z,19.00
2023-04-16T15:05:04.603Z,19.00
2023-04-16T15:07:31.944Z,19.00
2023-04-16T15:09:59.464Z,18.90
2023-04-16T15:12:26.858Z,19.00
2023-04-16T15:14:54.065Z,18.90
2023-04-16T15:17:21.585Z,18.80
2023-04-16T15:19:48.918Z,18.80
2023-04-16T15:22:16.898Z,18.80
2023-04-16T15:24:44.256Z,18.80
2023-04-16T15:27:12.610Z,18.80
2023-04-16T15:29:39.874Z,18.80
2023-04-16T15:32:07.165Z,18.80
2023-04-16T15:34:34.376Z,18.90
2023-04-16T15:37:01.636Z,18.90
2023-04-16T15:39:28.846Z,18.90
2023-04-16T15:42:01.275Z,18.80
2023-04-16T15:44:31.470Z,18.80
2023-04-16T15:47:00.386Z,18.90
2023-04-16T15:49:27.753Z,18.90
2023-04-16T15:51:56.319Z,18.80
2023-04-16T15:54:24.043Z,18.80
2023-04-16T15:56:51.772Z,18.70
2023-04-16T15:59:19.137Z,18.70
2023-04-16T16:01:46.519Z,18.60
2023-04-16T16:04:13.860Z,18.60
2023-04-16T16:06:41.996Z,18.70
2023-04-16T16:09:09.634Z,18.60
2023-04-16T16:11:38.723Z,18.60
2023-04-16T16:14:06.022Z,18.60
2023-04-16T16:16:33.499Z,18.60
2023-04-16T16:19:00.829Z,18.50
2023-04-16T16:21:30.351Z,18.50
2023-04-16T16:23:58.064Z,18.50
2023-04-16T16:26:25.340Z,18.40
2023-04-16T16:28:52.644Z,18.40
2023-04-16T16:31:19.989Z,18.30
2023-04-16T16:33:47.284Z,18.30
2023-04-16T16:36:14.531Z,18.30
2023-04-16T16:38:42.652Z,18.30
2023-04-16T16:41:09.805Z,18.30
2023-04-16T16:43:37.012Z,18.20
2023-04-16T16:46:05.329Z,18.20
2023-04-16T16:48:32.615Z,18.10
2023-04-16T16:50:59.754Z,18.10
2023-04-16T16:53:27.428Z,18.10
2023-04-16T16:55:54.616Z,18.10
2023-04-16T16:58:21.922Z,18.10
2023-04-16T17:00:49.182Z,18.00
2023-04-16T17:03:17.103Z,17.90
2023-04-16T17:05:44.534Z,17.90
2023-04-16T17:08:12.211Z,17.80
2023-04-16T17:10:39.418Z,17.80
2023-04-16T17:13:06.758Z,17.70
2023-04-16T17:15:34.009Z,17.60
2023-04-16T17:18:01.472Z,17.60
2023-04-16T17:20:29.052Z,17.60
2023-04-16T17:22:56.339Z,17.50
2023-04-16T17:25:23.500Z,17.50
2023-04-16T17:27:50.737Z,17.40
2023-04-16T17:30:18.628Z,17.30
2023-04-16T17:32:46.296Z,17.20
2023-04-16T17:35:14.083Z,17.10
2023-04-16T17:37:41.500Z,17.00
2023-04-16T17:40:10.163Z,16.90
2023-04-16T17:42:37.522Z,16.80
2023-04-16T17:45:05.391Z,16.60
2023-04-16T17:47:36.610Z,16.50
2023-04-16T17:50:04.858Z,16.40
2023-04-16T17:52:31.976Z,16.40
2023-04-16T17:55:01.007Z,16.40
2023-04-16T17:57:28.171Z,16.30
2023-04-16T17:59:55.687Z,16.30
2023-04-16T18:02:23.508Z,16.30
2023-04-16T18:04:51.586Z,16.20
2023-04-16T18:07:19.495Z,16.10
2023-04-16T18:09:46.827Z,16.00
2023-04-16T18:12:14.115Z,15.90
2023-04-16T18:14:44.731Z,15.80
2023-04-16T18:17:13.132Z,15.70
2023-04-16T18:19:43.780Z,15.60
2023-04-16T18:22:13.307Z,15.50
2023-04-16T18:24:40.886Z,15.50
2023-04-16T18:27:08.045Z,15.40
2023-04-16T18:29:35.608Z,15.30
2023-04-16T18:32:04.551Z,15.30
2023-04-16T18:34:32.294Z,15.30
2023-04-16T18:36:59.497Z,15.20
2023-04-16T18:39:27.239Z,15.20
2023-04-16T18:41:54.422Z,15.10
2023-04-16T18:44:21.663Z,14.90
2023-04-16T18:46:49.562Z,14.80
2023-04-16T18:49:16.812Z,14.70
2023-04-16T18:51:43.986Z,14.60
2023-04-16T18:54:11.485Z,14.60
2023-04-16T18:56:38.701Z,14.60
2023-04-16T18:59:05.890Z,14.60
2023-04-16T19:01:33.105Z,14.60
2023-04-16T19:04:00.438Z,14.70
2023-04-16T19:06:28.333Z,14.70
2023-04-16T19:08:55.767Z,14.70
2023-04-16T19:11:22.969Z,14.70
2023-04-16T19:13:50.247Z,14.70
2023-04-16T19:16:17.678Z,14.70
2023-04-16T19:18:44.918Z,14.60
2023-04-16T19:21:12.245Z,14.60
2023-04-16T19:23:39.665Z,14.60
2023-04-16T19:26:06.952Z,14.60
2023-04-16T19:28:34.104Z,14.60
2023-04-16T19:31:01.409Z,14.50
2023-04-16T19:33:28.733Z,14.50
2023-04-16T19:35:55.986Z,14.40
2023-04-16T19:38:23.264Z,14.40
2023-04-16T19:40:50.377Z,14.40
2023-04-16T19:43:17.639Z,14.40
2023-04-16T19:45:46.696Z,14.30
2023-04-16T19:48:14.530Z,14.20
2023-04-16T19:50:42.820Z,14.20
2023-04-16T19:53:11.139Z,14.20
2023-04-16T19:55:40.489Z,14.20
2023-04-16T19:58:08.928Z,14.20
2023-04-16T20:00:38.545Z,14.10
2023-04-16T20:03:06.426Z,14.10
2023-04-16T20:05:33.659Z,14.10
2023-04-16T20:08:00.953Z,14.00
2023-04-16T20:10:28.082Z,14.00
2023-04-16T20:12:55.409Z,13.90
2023-04-16T20:15:22.691Z,13.90
2023-04-16T20:17:50.004Z,13.80
2023-04-16T20:20:17.354Z,13.80
2023-04-16T20:22:44.776Z,13.80
2023-04-16T20:25:14.416Z,13.80
2023-04-16T20:27:41.769Z,13.80
2023-04-16T20:30:09.407Z,13.80
2023-04-16T20:32:36.666Z,13.70
2023-04-16T20:37:29.609Z,13.60
2023-04-16T20:39:56.863Z,13.60
2023-04-16T20:42:26.408Z,13.50
2023-04-16T20:44:56.765Z,13.50
2023-04-16T20:47:24.230Z,13.50
2023-04-16T20:49:53.002Z,13.50
2023-04-16T20:52:21.741Z,13.40
2023-04-16T20:54:52.043Z,13.30
2023-04-16T20:57:19.497Z,13.30
2023-04-16T20:59:46.778Z,13.20
2023-04-16T21:02:14.195Z,13.20
2023-04-16T21:04:41.668Z,13.20
2023-04-16T21:07:09.172Z,13.10
2023-04-16T21:09:36.348Z,13.00
2023-04-16T21:12:03.691Z,13.00
2023-04-16T21:14:30.838Z,12.90
2023-04-16T21:16:58.108Z,12.80
2023-04-16T21:19:25.426Z,12.80
2023-04-16T21:21:52.697Z,12.80
2023-04-16T21:24:19.859Z,12.70
2023-04-16T21:26:47.153Z,12.60
2023-04-16T21:29:14.475Z,12.60
2023-04-16T21:31:41.940Z,12.60
2023-04-16T21:34:09.159Z,12.50
2023-04-16T21:36:36.554Z,12.50
2023-04-16T21:39:03.792Z,12.50
2023-04-16T21:41:31.041Z,12.40
2023-04-16T21:43:58.251Z,12.40
2023-04-16T21:46:26.397Z,12.40
2023-04-16T21:48:53.917Z,12.30
2023-04-16T21:51:28.988Z,12.30
2023-04-16T21:53:57.160Z,12.30
2023-04-16T21:56:25.945Z,12.20
2023-04-16T21:58:53.290Z,12.20
2023-04-16T22:01:20.492Z,12.20
2023-04-16T22:03:50.855Z,12.20
2023-04-16T22:06:18.779Z,12.20
2023-04-16T22:08:46.035Z,12.20
2023-04-16T22:11:13.294Z,12.20
2023-04-16T22:13:42.492Z,12.10
2023-04-16T22:16:11.747Z,12.10
2023-04-16T22:18:41.058Z,12.10
2023-04-16T22:21:08.383Z,12.10
2023-04-16T22:23:35.610Z,12.00
2023-04-16T22:26:03.128Z,12.00
2023-04-16T22:28:30.431Z,12.00
2023-04-16T22:30:57.629Z,12.00
2023-04-16T22:33:24.903Z,12.00
2023-04-16T22:35:52.272Z,12.00
2023-04-16T22:38:19.408Z,11.90
2023-04-16T22:40:48.889Z,11.90
2023-04-16T22:43:17.752Z,11.90
2023-04-16T22:45:46.551Z,11.90
2023-04-16T22:48:13.856Z,11.80
2023-04-16T22:50:46.215Z,11.80
2023-04-16T22:53:13.478Z,11.80
2023-04-16T22:55:40.602Z,11.70
2023-04-16T22:58:07.910Z,11.70
2023-04-16T23:00:35.346Z,11.60
2023-04-16T23:03:02.799Z,11.60
2023-04-16T23:05:30.102Z,11.50
2023-04-16T23:07:57.351Z,11.50
2023-04-16T23:10:24.507Z,11.50
2023-04-16T23:12:51.838Z,11.40
2023-04-16T23:15:19.090Z,11.40
2023-04-16T23:17:46.791Z,11.40
2023-04-16T23:20:14.437Z,11.40
2023-04-16T23:22:42.037Z,11.40
2023-04-16T23:25:09.758Z,11.40
2023-04-16T23:27:37.174Z,11.40
2023-04-16T23:30:05.487Z,11.40
2023-04-16T23:32:34.197Z,11.40
2023-04-16T23:35:01.649Z,11.30
2023-04-16T23:37:28.868Z,11.20
2023-04-16T23:39:56.050Z,11.20
2023-04-16T23:42:23.348Z,11.30
2023-04-16T23:44:50.584Z,11.20
2023-04-16T23:47:17.788Z,11.20
2023-04-16T23:49:45.038Z,11.10
2023-04-16T23:52:12.297Z,11.10
2023-04-16T23:54:39.477Z,11.10
2023-04-16T23:57:06.839Z,11.00
2023-04-16T23:59:33.948Z,11.00
